createdAt,value
2019-04-06T00:00:41.465Z,1.70
2019-04-06T00:03:12.214Z,1.53
2019-04-06T00:05:43.409Z,1.63
2019-04-06T00:08:14.712Z,1.70
2019-04-06T00:10:46.144Z,1.50
2019-04-06T00:13:17.534Z,1.87
2019-04-06T00:15:48.670Z,1.80
2019-04-06T00:18:19.944Z,1.87
2019-04-06T00:20:51.040Z,1.90
2019-04-06T00:23:22.340Z,1.77
2019-04-06T00:25:53.530Z,1.80
2019-04-06T00:28:24.669Z,1.50
2019-04-06T00:31:05.791Z,1.20
2019-04-06T00:33:37.089Z,1.30
2019-04-06T00:36:08.284Z,1.27
2019-04-06T00:38:39.465Z,1.67
2019-04-06T00:41:10.279Z,1.10
2019-04-06T00:43:41.449Z,1.17
2019-04-06T00:46:12.661Z,1.20
2019-04-06T00:48:43.924Z,1.60
2019-04-06T00:51:15.114Z,1.33
2019-04-06T00:53:46.256Z,1.43
2019-04-06T00:56:17.284Z,1.40
2019-04-06T00:58:48.321Z,1.60
2019-04-06T01:01:19.464Z,1.73
2019-04-06T01:03:50.604Z,1.80
2019-04-06T01:06:21.539Z,2.00
2019-04-06T01:08:52.589Z,1.70
2019-04-06T01:11:23.539Z,2.00
2019-04-06T01:13:54.529Z,1.87
2019-04-06T01:16:25.640Z,2.10
2019-04-06T01:18:56.679Z,1.80
2019-04-06T01:21:28.015Z,1.70
2019-04-06T01:23:59.160Z,1.97
2019-04-06T01:26:30.240Z,2.03
2019-04-06T01:29:01.149Z,2.10
2019-04-06T01:31:32.000Z,2.10
2019-04-06T01:34:03.294Z,2.67
2019-04-06T01:36:34.410Z,2.27
2019-04-06T01:39:06.605Z,2.20
2019-04-06T01:41:37.626Z,2.73
2019-04-06T01:44:08.594Z,2.10
2019-04-06T01:46:39.624Z,2.20
2019-04-06T01:49:10.354Z,2.70
2019-04-06T01:51:41.421Z,2.57
2019-04-06T01:54:12.649Z,2.53
2019-04-06T01:56:43.329Z,2.23
2019-04-06T01:59:14.319Z,2.30
2019-04-06T02:01:53.509Z,2.10
2019-04-06T02:04:24.374Z,1.90
2019-04-06T02:06:55.539Z,2.13
2019-04-06T02:09:26.414Z,2.13
2019-04-06T02:11:57.104Z,2.50
2019-04-06T02:14:28.026Z,2.77
2019-04-06T02:16:58.874Z,1.80
2019-04-06T02:19:30.029Z,2.40
2019-04-06T02:22:01.191Z,2.13
2019-04-06T02:24:32.338Z,2.23
2019-04-06T02:27:03.971Z,2.80
2019-04-06T02:29:35.065Z,2.63
2019-04-06T02:32:33.631Z,2.23
2019-04-06T02:35:23.295Z,2.43
2019-04-06T02:38:01.664Z,2.20
2019-04-06T02:40:49.796Z,2.23
2019-04-06T02:43:24.000Z,2.60
2019-04-06T02:45:55.047Z,2.50
2019-04-06T02:48:26.290Z,2.40
2019-04-06T02:50:57.857Z,2.83
2019-04-06T02:53:28.825Z,2.23
2019-04-06T02:55:59.725Z,2.43
2019-04-06T02:58:30.826Z,2.20
2019-04-06T03:01:02.001Z,2.93
2019-04-06T03:03:33.379Z,2.00
2019-04-06T03:06:04.228Z,2.90
2019-04-06T03:08:35.331Z,2.50
2019-04-06T03:11:06.515Z,3.00
2019-04-06T03:13:37.772Z,2.90
2019-04-06T03:16:09.265Z,3.27
2019-04-06T03:18:40.311Z,2.57
2019-04-06T03:21:11.726Z,2.87
2019-04-06T03:23:50.608Z,2.97
2019-04-06T03:26:15.524Z,2.20
2019-04-06T03:28:46.861Z,2.57
2019-04-06T03:31:23.998Z,1.97
2019-04-06T03:33:52.001Z,2.77
2019-04-06T03:36:23.405Z,2.63
2019-04-06T03:38:54.279Z,3.47
2019-04-06T03:41:25.407Z,3.47
2019-04-06T03:43:56.715Z,2.40
2019-04-06T03:46:27.974Z,2.63
2019-04-06T03:48:58.830Z,2.40
2019-04-06T03:51:30.064Z,2.33
2019-04-06T03:54:01.059Z,3.63
2019-04-06T03:56:32.044Z,3.17
2019-04-06T03:59:03.239Z,3.20
2019-04-06T04:01:33.989Z,3.97
2019-04-06T04:04:05.100Z,3.40
2019-04-06T04:06:36.400Z,3.20
2019-04-06T04:09:07.717Z,3.03
2019-04-06T04:11:38.880Z,3.10
2019-04-06T04:14:09.749Z,2.97
2019-04-06T04:16:40.630Z,2.93
2019-04-06T04:19:11.946Z,2.97
2019-04-06T04:21:43.087Z,2.50
2019-04-06T04:24:14.459Z,2.80
2019-04-06T04:26:45.289Z,2.07
2019-04-06T04:29:16.594Z,2.70
2019-04-06T04:31:47.894Z,2.90
2019-04-06T04:34:19.008Z,2.73
2019-04-06T04:36:50.307Z,2.73
2019-04-06T04:39:21.700Z,2.73
2019-04-06T04:41:52.500Z,3.00
2019-04-06T04:44:23.335Z,3.10
2019-04-06T04:46:54.024Z,2.23
2019-04-06T04:49:24.871Z,2.83
2019-04-06T04:51:55.522Z,2.70
2019-04-06T04:54:26.174Z,2.90
2019-04-06T04:56:56.899Z,3.07
2019-04-06T04:59:27.610Z,2.83
2019-04-06T05:01:58.495Z,2.50
2019-04-06T05:04:29.274Z,2.60
2019-04-06T05:07:00.329Z,2.83
2019-04-06T05:09:31.844Z,2.80
2019-04-06T05:12:02.750Z,3.30
2019-04-06T05:15:01.488Z,3.33
2019-04-06T05:17:32.419Z,3.10
2019-04-06T05:20:03.739Z,2.90
2019-04-06T05:22:34.594Z,2.53
2019-04-06T05:25:06.040Z,2.90
2019-04-06T05:27:37.074Z,2.40
2019-04-06T05:30:09.408Z,3.47
2019-04-06T05:32:40.302Z,2.67
2019-04-06T05:35:11.371Z,2.63
2019-04-06T05:37:42.529Z,2.83
2019-04-06T05:40:13.569Z,2.60
2019-04-06T05:42:44.249Z,3.10
2019-04-06T05:45:15.119Z,2.73
2019-04-06T05:47:45.894Z,2.70
2019-04-06T05:50:16.684Z,1.90
2019-04-06T05:52:47.360Z,1.47
2019-04-06T05:55:18.287Z,2.30
2019-04-06T05:57:49.035Z,1.73
2019-04-06T06:00:19.860Z,2.03
2019-04-06T06:02:50.899Z,2.67
2019-04-06T06:05:22.430Z,2.43
2019-04-06T06:07:53.539Z,3.60
2019-04-06T06:10:24.509Z,3.83
2019-04-06T06:12:55.427Z,3.10
2019-04-06T06:15:26.383Z,2.37
2019-04-06T06:17:57.250Z,1.50
2019-04-06T06:20:28.032Z,1.70
2019-04-06T06:22:58.966Z,2.00
2019-04-06T06:25:29.845Z,1.47
2019-04-06T06:28:00.675Z,1.90
2019-04-06T06:30:31.917Z,1.90
2019-04-06T06:33:03.239Z,1.53
2019-04-06T06:35:34.209Z,2.00
2019-04-06T06:38:05.222Z,1.70
2019-04-06T06:40:36.145Z,2.70
2019-04-06T06:43:07.374Z,1.40
2019-04-06T06:45:38.509Z,1.87
2019-04-06T06:48:09.846Z,1.80
2019-04-06T06:50:40.857Z,1.73
2019-04-06T06:53:12.010Z,1.70
2019-04-06T06:55:43.533Z,2.30
2019-04-06T06:58:24.847Z,2.30
2019-04-06T07:00:47.487Z,2.63
2019-04-06T07:03:18.920Z,3.37
2019-04-06T07:05:50.324Z,5.10
2019-04-06T07:08:21.104Z,11.37
2019-04-06T07:10:51.956Z,10.53
2019-04-06T07:13:23.194Z,4.90
2019-04-06T07:15:54.315Z,3.43
2019-04-06T07:18:25.724Z,1.80
2019-04-06T07:20:56.816Z,3.13
2019-04-06T07:23:29.419Z,2.43
2019-04-06T07:26:00.790Z,2.53
2019-04-06T07:28:37.472Z,2.40
2019-04-06T07:31:05.280Z,1.33
2019-04-06T07:33:36.345Z,1.60
2019-04-06T07:36:07.376Z,1.53
2019-04-06T07:38:38.489Z,2.27
2019-04-06T07:41:09.550Z,1.93
2019-04-06T07:43:40.929Z,2.13
2019-04-06T07:46:11.954Z,1.70
2019-04-06T07:48:42.849Z,2.37
2019-04-06T07:51:14.134Z,3.20
2019-04-06T07:53:44.980Z,2.37
2019-04-06T07:56:15.896Z,2.93
2019-04-06T07:58:49.519Z,2.07
2019-04-06T08:01:19.101Z,1.60
2019-04-06T08:03:49.989Z,1.87
2019-04-06T08:06:20.920Z,4.00
2019-04-06T08:08:51.792Z,2.13
2019-04-06T08:11:22.684Z,9.73
2019-04-06T08:13:53.975Z,1.67
2019-04-06T08:16:25.129Z,1.53
2019-04-06T08:18:55.974Z,1.47
2019-04-06T08:21:27.567Z,3.03
2019-04-06T08:23:58.608Z,2.10
2019-04-06T08:26:29.789Z,2.03
2019-04-06T08:29:02.649Z,2.57
2019-04-06T08:31:33.379Z,2.43
2019-04-06T08:34:04.254Z,1.63
2019-04-06T08:36:35.049Z,1.83
2019-04-06T08:39:08.226Z,1.60
2019-04-06T08:41:39.055Z,33.23
2019-04-06T08:44:09.774Z,1.93
2019-04-06T08:46:40.854Z,1.80
2019-04-06T08:49:11.720Z,1.20
2019-04-06T08:51:42.534Z,1.40
2019-04-06T08:54:13.532Z,1.63
2019-04-06T08:56:44.349Z,1.40
2019-04-06T08:59:15.119Z,0.90
2019-04-06T09:01:46.059Z,1.07
2019-04-06T09:04:16.890Z,1.20
2019-04-06T09:06:47.699Z,1.47
2019-04-06T09:09:18.883Z,1.33
2019-04-06T09:11:49.640Z,1.67
2019-04-06T09:14:20.374Z,1.47
2019-04-06T09:16:51.309Z,1.00
2019-04-06T09:19:22.729Z,1.47
2019-04-06T09:21:53.640Z,1.43
2019-04-06T09:24:24.554Z,1.27
2019-04-06T09:26:55.450Z,0.77
2019-04-06T09:29:26.255Z,1.30
2019-04-06T09:31:57.524Z,1.00
2019-04-06T09:34:30.696Z,0.80
2019-04-06T09:37:00.739Z,1.20
2019-04-06T09:39:31.624Z,1.43
2019-04-06T09:42:02.399Z,1.13
2019-04-06T09:44:41.825Z,1.10
2019-04-06T09:47:37.079Z,1.17
2019-04-06T09:50:36.703Z,1.33
2019-04-06T09:53:25.960Z,1.33
2019-04-06T09:56:14.184Z,1.30
2019-04-06T09:59:02.019Z,1.43
2019-04-06T10:01:53.234Z,1.30
2019-04-06T10:04:48.600Z,1.23
2019-04-06T10:07:50.035Z,1.37
2019-04-06T10:10:48.489Z,1.50
2019-04-06T10:13:44.184Z,1.07
2019-04-06T10:16:39.639Z,1.70
2019-04-06T10:19:41.134Z,1.50
2019-04-06T10:22:30.649Z,1.50
2019-04-06T10:25:18.633Z,1.30
2019-04-06T10:28:14.125Z,1.63
2019-04-06T10:30:57.739Z,1.50
2019-04-06T10:33:41.381Z,1.83
2019-04-06T10:36:18.051Z,1.63
2019-04-06T10:39:10.654Z,2.03
2019-04-06T10:41:54.639Z,1.90
2019-04-06T10:44:42.429Z,1.77
2019-04-06T10:47:25.644Z,2.33
2019-04-06T10:50:18.005Z,2.17
2019-04-06T10:53:10.604Z,2.80
2019-04-06T10:55:47.235Z,1.87
2019-04-06T10:58:39.565Z,2.40
2019-04-06T11:01:43.999Z,2.27
2019-04-06T11:04:34.122Z,2.87
2019-04-06T11:07:23.744Z,2.00
2019-04-06T11:10:16.699Z,2.90
2019-04-06T11:13:24.324Z,2.47
2019-04-06T11:16:25.820Z,2.50
2019-04-06T11:19:13.627Z,2.57
2019-04-06T11:22:18.269Z,2.70
2019-04-06T11:25:06.399Z,2.40
2019-04-06T11:27:49.742Z,2.60
2019-04-06T11:30:42.085Z,2.87
2019-04-06T11:33:29.814Z,3.00
2019-04-06T11:36:16.675Z,3.53
2019-04-06T11:39:09.207Z,4.90
2019-04-06T11:41:55.027Z,6.33
2019-04-06T11:44:43.704Z,7.17
2019-04-06T11:47:36.084Z,8.43
2019-04-06T11:50:17.655Z,7.37
2019-04-06T11:53:07.085Z,7.77
2019-04-06T11:55:47.444Z,7.97
2019-04-06T11:58:39.977Z,8.43
2019-04-06T12:01:20.499Z,10.10
2019-04-06T12:04:00.385Z,12.63
2019-04-06T12:06:45.014Z,13.93
2019-04-06T12:09:47.011Z,13.47
2019-04-06T12:12:32.950Z,12.67
2019-04-06T12:15:40.595Z,13.77
2019-04-06T12:18:39.184Z,15.07
2019-04-06T12:21:35.719Z,16.43
2019-04-06T12:24:22.219Z,17.53
2019-04-06T12:27:10.019Z,16.20
2019-04-06T12:30:05.551Z,15.80
2019-04-06T12:32:48.260Z,14.20
2019-04-06T12:35:36.484Z,14.27
2019-04-06T12:38:31.854Z,15.27
2019-04-06T12:41:14.844Z,13.27
2019-04-06T12:44:03.130Z,16.27
2019-04-06T12:46:51.752Z,16.93
2019-04-06T12:49:47.464Z,17.20
2019-04-06T12:52:31.349Z,17.67
2019-04-06T12:55:16.304Z,17.40
2019-04-06T12:58:05.810Z,17.87
2019-04-06T13:00:52.856Z,16.63
2019-04-06T13:03:43.917Z,16.87
2019-04-06T13:06:37.854Z,17.63
2019-04-06T13:09:18.819Z,16.60
2019-04-06T13:12:14.543Z,17.30
2019-04-06T13:14:51.122Z,17.53
2019-04-06T13:17:49.504Z,16.07
2019-04-06T13:20:37.733Z,16.47
2019-04-06T13:23:25.474Z,15.47
2019-04-06T13:26:26.884Z,18.03
2019-04-06T13:29:19.189Z,17.27
2019-04-06T13:32:14.796Z,17.40
2019-04-06T13:34:55.135Z,16.07
2019-04-06T13:37:44.749Z,16.90
2019-04-06T13:40:37.158Z,16.17
2019-04-06T13:43:23.680Z,16.40
2019-04-06T13:46:11.949Z,18.30
2019-04-06T13:49:10.590Z,17.37
2019-04-06T13:52:06.183Z,18.93
2019-04-06T13:55:02.057Z,18.73
2019-04-06T13:57:44.319Z,18.37
2019-04-06T14:00:40.380Z,16.67
2019-04-06T14:03:28.351Z,15.90
2019-04-06T14:06:16.556Z,18.33
2019-04-06T14:09:04.324Z,18.53
2019-04-06T14:11:56.563Z,19.03
2019-04-06T14:14:48.714Z,16.83
2019-04-06T14:17:38.549Z,18.07
2019-04-06T14:20:25.900Z,16.83
2019-04-06T14:23:27.483Z,16.00
2019-04-06T14:26:25.875Z,16.43
2019-04-06T14:29:07.439Z,16.50
2019-04-06T14:31:58.610Z,16.67
2019-04-06T14:34:46.409Z,14.27
2019-04-06T14:37:53.749Z,16.07
2019-04-06T14:40:35.120Z,15.87
2019-04-06T14:43:23.215Z,15.33
2019-04-06T14:46:10.626Z,14.90
2019-04-06T14:48:51.145Z,15.07
2019-04-06T14:51:29.810Z,14.60
2019-04-06T14:54:22.516Z,15.03
2019-04-06T14:57:00.331Z,14.80
2019-04-06T15:00:01.969Z,12.80
2019-04-06T15:02:57.196Z,14.20
2019-04-06T15:05:45.074Z,13.83
2019-04-06T15:08:40.457Z,14.67
2019-04-06T15:11:28.509Z,13.87
2019-04-06T15:14:21.836Z,13.00
2019-04-06T15:17:08.885Z,13.47
2019-04-06T15:20:13.559Z,13.23
2019-04-06T15:22:56.979Z,14.10
2019-04-06T15:25:45.936Z,13.20
2019-04-06T15:28:23.224Z,12.47
2019-04-06T15:31:13.334Z,12.80
2019-04-06T15:33:57.358Z,11.63
2019-04-06T15:36:45.411Z,13.10
2019-04-06T15:39:33.224Z,13.37
2019-04-06T15:42:23.171Z,14.80
2019-04-06T15:45:13.076Z,12.77
2019-04-06T15:48:05.489Z,12.03
2019-04-06T15:51:01.806Z,12.73
2019-04-06T15:53:39.804Z,13.90
2019-04-06T15:56:23.219Z,13.97
2019-04-06T15:59:12.782Z,13.50
2019-04-06T16:02:03.129Z,13.83
2019-04-06T16:04:43.296Z,13.87
2019-04-06T16:07:29.489Z,14.37
2019-04-06T16:10:08.419Z,15.10
2019-04-06T16:13:13.298Z,16.00
2019-04-06T16:16:00.726Z,16.00
2019-04-06T16:18:53.595Z,16.80
2019-04-06T16:21:45.354Z,15.57
2019-04-06T16:24:26.913Z,17.17
2019-04-06T16:27:09.557Z,17.47
2019-04-06T16:29:56.426Z,17.57
2019-04-06T16:32:37.669Z,18.00
2019-04-06T16:35:27.214Z,16.70
2019-04-06T16:38:17.004Z,19.23
2019-04-06T16:41:04.994Z,18.63
2019-04-06T16:43:48.419Z,17.67
2019-04-06T16:46:41.351Z,18.37
2019-04-06T16:49:33.804Z,16.93
2019-04-06T16:52:41.554Z,17.40
2019-04-06T16:55:22.654Z,17.43
2019-04-06T16:58:20.947Z,53.57
2019-04-06T17:00:58.384Z,24.50
2019-04-06T17:03:53.789Z,51.13
2019-04-06T17:06:39.670Z,22.33
2019-04-06T17:09:27.724Z,65.10
2019-04-06T17:12:15.854Z,28.03
2019-04-06T17:15:06.004Z,22.13
2019-04-06T17:17:45.680Z,22.97
2019-04-06T17:20:28.582Z,20.93
2019-04-06T17:23:23.817Z,17.83
2019-04-06T17:26:26.045Z,20.17
2019-04-06T17:29:18.654Z,23.00
2019-04-06T17:32:11.279Z,23.83
2019-04-06T17:35:19.487Z,23.80
2019-04-06T17:38:12.299Z,21.40
2019-04-06T17:40:48.540Z,24.53
2019-04-06T17:43:46.964Z,21.80
2019-04-06T17:46:34.520Z,26.83
2019-04-06T17:49:19.595Z,28.10
2019-04-06T17:52:10.285Z,27.47
2019-04-06T17:55:08.520Z,27.07
2019-04-06T17:57:50.896Z,30.63
2019-04-06T18:00:58.380Z,25.60
2019-04-06T18:03:46.405Z,27.23
2019-04-06T18:06:48.625Z,29.97
2019-04-06T18:09:35.240Z,30.63
2019-04-06T18:12:21.551Z,23.27
2019-04-06T18:14:52.386Z,22.90
2019-04-06T18:17:23.255Z,23.17
2019-04-06T18:19:53.954Z,23.80
2019-04-06T18:22:24.695Z,24.37
2019-04-06T18:24:55.765Z,24.70
2019-04-06T18:27:26.696Z,23.97
2019-04-06T18:29:57.557Z,24.53
2019-04-06T18:32:38.371Z,23.97
2019-04-06T18:35:10.000Z,25.23
2019-04-06T18:37:59.182Z,23.00
2019-04-06T18:40:30.946Z,24.07
2019-04-06T18:43:01.702Z,25.73
2019-04-06T18:45:34.021Z,24.73
2019-04-06T18:48:04.855Z,24.97
2019-04-06T18:50:38.320Z,25.20
2019-04-06T18:53:08.291Z,25.07
2019-04-06T18:55:39.080Z,24.93
2019-04-06T18:58:12.747Z,25.63
2019-04-06T19:00:42.887Z,25.53
2019-04-06T19:03:15.427Z,25.40
2019-04-06T19:05:46.269Z,26.63
2019-04-06T19:08:17.603Z,28.17
2019-04-06T19:10:48.689Z,27.50
2019-04-06T19:13:19.712Z,26.07
2019-04-06T19:15:50.645Z,27.77
2019-04-06T19:18:22.872Z,28.13
2019-04-06T19:20:54.080Z,26.90
2019-04-06T19:23:25.142Z,28.30
2019-04-06T19:25:56.735Z,28.27
2019-04-06T19:28:28.748Z,29.47
2019-04-06T19:31:00.191Z,28.77
2019-04-06T19:33:31.546Z,28.73
2019-04-06T19:36:02.521Z,29.00
2019-04-06T19:38:33.677Z,29.70
2019-04-06T19:41:05.371Z,29.23
2019-04-06T19:43:36.541Z,28.50
2019-04-06T19:46:07.760Z,28.40
2019-04-06T19:48:40.583Z,28.90
2019-04-06T19:51:11.585Z,29.47
2019-04-06T19:53:42.582Z,27.53
2019-04-06T19:56:13.460Z,27.60
2019-04-06T19:58:44.967Z,27.57
2019-04-06T20:01:15.984Z,27.67
2019-04-06T20:03:47.789Z,28.83
2019-04-06T20:06:18.767Z,28.27
2019-04-06T20:08:50.209Z,27.03
2019-04-06T20:11:21.186Z,26.23
2019-04-06T20:13:53.854Z,27.80
2019-04-06T20:16:26.416Z,26.83
2019-04-06T20:18:58.914Z,28.37
2019-04-06T20:21:30.734Z,27.47
2019-04-06T20:24:01.846Z,28.73
2019-04-06T20:26:32.744Z,28.17
2019-04-06T20:29:03.784Z,28.50
2019-04-06T20:31:35.075Z,28.53
2019-04-06T20:34:06.233Z,28.77
2019-04-06T20:36:37.189Z,28.17
2019-04-06T20:39:10.124Z,27.30
2019-04-06T20:41:41.436Z,28.03
2019-04-06T20:44:12.299Z,29.17
2019-04-06T20:46:43.329Z,27.80
2019-04-06T20:49:14.375Z,27.23
2019-04-06T20:51:45.519Z,26.70
2019-04-06T20:54:16.740Z,28.00
2019-04-06T20:56:56.016Z,28.60
2019-04-06T20:59:21.080Z,26.93
2019-04-06T21:01:52.180Z,26.57
2019-04-06T21:04:23.605Z,25.90
2019-04-06T21:06:54.973Z,27.77
2019-04-06T21:09:25.985Z,26.03
2019-04-06T21:11:56.958Z,27.10
2019-04-06T21:14:28.283Z,25.57
2019-04-06T21:16:59.368Z,25.60
2019-04-06T21:19:30.320Z,26.30
2019-04-06T21:22:02.238Z,26.23
2019-04-06T21:24:33.563Z,26.30
2019-04-06T21:27:04.892Z,25.27
2019-04-06T21:29:35.985Z,25.27
2019-04-06T21:32:07.388Z,25.53
2019-04-06T21:34:38.504Z,26.67
2019-04-06T21:37:09.797Z,25.27
2019-04-06T21:39:40.699Z,25.90
2019-04-06T21:42:11.722Z,25.13
2019-04-06T21:44:42.568Z,25.40
2019-04-06T21:47:13.355Z,25.40
2019-04-06T21:49:44.606Z,24.97
2019-04-06T21:52:15.779Z,24.37
2019-04-06T21:54:46.670Z,25.70
2019-04-06T21:57:17.539Z,24.87
2019-04-06T21:59:48.449Z,25.80
2019-04-06T22:02:19.519Z,25.17
2019-04-06T22:04:50.322Z,25.77
2019-04-06T22:07:21.264Z,25.37
2019-04-06T22:09:52.037Z,25.83
2019-04-06T22:12:22.844Z,25.30
2019-04-06T22:14:54.186Z,25.20
2019-04-06T22:17:25.019Z,25.40
2019-04-06T22:19:55.972Z,25.87
2019-04-06T22:22:27.502Z,25.17
2019-04-06T22:24:58.710Z,25.07
2019-04-06T22:27:30.077Z,25.50
2019-04-06T22:30:01.464Z,26.53
2019-04-06T22:32:32.444Z,25.27
2019-04-06T22:35:03.470Z,24.07
2019-04-06T22:37:34.219Z,24.30
2019-04-06T22:40:06.224Z,24.97
2019-04-06T22:42:37.126Z,24.87
2019-04-06T22:45:10.554Z,24.07
2019-04-06T22:47:41.605Z,23.17
2019-04-06T22:50:12.497Z,23.53
2019-04-06T22:52:43.493Z,23.97
2019-04-06T22:55:14.384Z,23.93
2019-04-06T22:57:45.495Z,23.47
2019-04-06T23:00:28.134Z,23.40
2019-04-06T23:03:19.734Z,23.00
2019-04-06T23:05:53.859Z,23.97
2019-04-06T23:08:24.749Z,22.60
2019-04-06T23:10:55.694Z,24.27
2019-04-06T23:13:26.899Z,22.53
2019-04-06T23:15:57.766Z,23.80
2019-04-06T23:18:28.591Z,22.83
2019-04-06T23:20:59.434Z,23.73
2019-04-06T23:23:30.389Z,23.63
2019-04-06T23:26:01.310Z,23.00
2019-04-06T23:28:32.144Z,23.23
2019-04-06T23:31:03.908Z,23.70
2019-04-06T23:33:34.939Z,23.30
2019-04-06T23:36:05.714Z,22.33
2019-04-06T23:38:37.361Z,23.23
2019-04-06T23:41:09.362Z,23.67
2019-04-06T23:43:40.442Z,23.47
2019-04-06T23:46:11.526Z,23.23
2019-04-06T23:48:42.887Z,23.93
2019-04-06T23:51:14.136Z,24.07
2019-04-06T23:53:45.509Z,23.37
2019-04-06T23:56:19.559Z,24.53
2019-04-06T23:58:50.584Z,22.83
